Flinders Reef, Australia
Current Conditions -  °F | °C
As of 9:30 PM on Saturday 22 Nov 2014 (Local Time) from YBTL Reporting Station
Few Clouds Few Clouds  
Wind Chill: 81°   Ceiling: Unl
Heat Index: 85°   Visibility: 6mi
Dew Point: 72°   Wind: 9mph
Humidity: 74%   Direction: 50°NE
Pressure: 29.94"   Gusts: NA
Location:  17.72°S, 148.43°E
Report Text: YBTL 221130Z 05008KT 9999 FEW022 27/22 Q1014
Loading
Personal Weather Stations






























Interactive Weather Map New forecast layout! Learn more

10-Day Weather Forecast

Advertisements
Track Severe Weather on mobile